createdAt,value
2018-08-24T00:00:00.648Z,5.8
2018-08-24T00:05:00.628Z,5.8
2018-08-24T00:10:00.753Z,5.3
2018-08-24T00:15:00.630Z,5.4
2018-08-24T00:20:00.634Z,5.4
2018-08-24T00:25:00.631Z,5.4
2018-08-24T00:30:00.637Z,5.0
2018-08-24T00:35:00.634Z,4.4
2018-08-24T00:40:00.876Z,4.0
2018-08-24T00:45:00.639Z,3.5
2018-08-24T00:50:00.701Z,3.0
2018-08-24T00:55:00.645Z,2.8
2018-08-24T01:00:00.714Z,2.7
2018-08-24T01:05:00.654Z,2.6
2018-08-24T01:10:00.774Z,2.9
2018-08-24T01:15:00.650Z,2.9
2018-08-24T01:20:00.656Z,3.0
2018-08-24T01:25:00.654Z,3.4
2018-08-24T01:30:00.700Z,3.6
2018-08-24T01:35:00.653Z,3.3
2018-08-24T01:40:00.620Z,3.3
2018-08-24T01:45:00.624Z,3.4
2018-08-24T01:50:00.718Z,3.5
2018-08-24T01:55:00.625Z,2.9
2018-08-24T02:00:00.688Z,2.8
2018-08-24T02:05:00.631Z,2.5
2018-08-24T02:10:00.629Z,2.2
2018-08-24T02:15:00.669Z,1.8
2018-08-24T02:20:00.783Z,2.0
2018-08-24T02:30:00.732Z,2.3
2018-08-24T02:40:00.636Z,2.5
2018-08-24T02:45:00.891Z,2.6
2018-08-24T02:50:00.665Z,2.9
2018-08-24T03:00:00.729Z,3.1
2018-08-24T03:10:00.807Z,3.2
2018-08-24T03:15:00.673Z,3.1
2018-08-24T03:20:00.772Z,3.0
2018-08-24T03:25:00.676Z,3.2
2018-08-24T03:30:00.761Z,3.2
2018-08-24T03:35:00.645Z,3.1
2018-08-24T03:40:00.712Z,3.1
2018-08-24T03:45:00.647Z,3.6
2018-08-24T03:55:00.747Z,3.8
2018-08-24T04:00:00.709Z,4.0
2018-08-24T04:10:00.743Z,3.9
2018-08-24T04:15:00.674Z,3.8
2018-08-24T04:20:00.805Z,4.1
2018-08-24T04:25:00.652Z,4.5
2018-08-24T04:30:00.705Z,4.7
2018-08-24T04:35:01.239Z,4.6
2018-08-24T04:40:00.888Z,5.1
2018-08-24T04:45:00.734Z,5.0
2018-08-24T04:50:00.851Z,4.8
2018-08-24T04:55:00.693Z,5.2
2018-08-24T05:00:00.952Z,5.6
2018-08-24T05:05:00.695Z,5.3
2018-08-24T05:15:00.708Z,5.8
2018-08-24T05:20:00.838Z,5.8
2018-08-24T05:30:00.866Z,6.0
2018-08-24T05:35:00.702Z,6.2
2018-08-24T05:45:00.707Z,5.9
2018-08-24T05:50:00.776Z,6.0
2018-08-24T05:55:00.716Z,6.2
2018-08-24T06:00:00.777Z,5.8
2018-08-24T06:05:00.728Z,6.2
2018-08-24T06:10:00.844Z,6.6
2018-08-24T06:15:00.659Z,6.6
2018-08-24T06:20:00.794Z,6.8
2018-08-24T06:25:00.730Z,7.4
2018-08-24T06:30:00.796Z,7.4
2018-08-24T06:35:00.695Z,7.3
2018-08-24T06:40:00.725Z,7.8
2018-08-24T06:45:00.736Z,8.2
2018-08-24T06:50:00.764Z,8.3
2018-08-24T07:00:00.772Z,8.8
2018-08-24T07:05:00.698Z,8.9
2018-08-24T07:10:00.868Z,9.2
2018-08-24T07:15:00.738Z,9.4
2018-08-24T07:20:00.741Z,10.0
2018-08-24T07:25:00.783Z,9.8
2018-08-24T07:30:00.809Z,9.9
2018-08-24T07:35:00.683Z,9.5
2018-08-24T07:40:00.896Z,9.8
2018-08-24T07:45:00.717Z,9.9
2018-08-24T07:50:00.943Z,10.6
2018-08-24T07:55:00.716Z,10.9
2018-08-24T08:00:00.757Z,11.2
2018-08-24T08:05:00.749Z,10.8
2018-08-24T08:10:00.809Z,10.0
2018-08-24T08:15:00.722Z,9.0
2018-08-24T08:20:00.972Z,8.1
2018-08-24T08:25:00.724Z,7.3
2018-08-24T08:30:00.819Z,6.7
2018-08-24T08:35:00.822Z,6.6
2018-08-24T08:40:00.819Z,6.3
2018-08-24T08:45:00.751Z,6.1
2018-08-24T08:50:00.728Z,6.0
2018-08-24T08:55:00.763Z,6.2
2018-08-24T09:00:00.819Z,6.2
2018-08-24T09:05:00.732Z,6.9
2018-08-24T09:10:00.765Z,7.9
2018-08-24T09:15:00.739Z,8.9
2018-08-24T09:20:00.764Z,9.6
2018-08-24T09:25:00.832Z,10.5
2018-08-24T09:30:00.770Z,10.7
2018-08-24T09:35:00.734Z,10.0
2018-08-24T09:40:00.775Z,9.2
2018-08-24T09:45:00.777Z,8.3
2018-08-24T09:50:00.819Z,7.3
2018-08-24T09:55:00.763Z,6.2
2018-08-24T10:00:00.763Z,5.4
2018-08-24T10:05:00.739Z,4.7
2018-08-24T10:10:00.749Z,4.0
2018-08-24T10:15:00.767Z,3.5
2018-08-24T10:20:00.799Z,3.2
2018-08-24T10:25:00.806Z,2.9
2018-08-24T10:30:00.778Z,2.8
2018-08-24T10:35:00.804Z,3.1
2018-08-24T10:40:00.808Z,2.9
2018-08-24T10:45:00.808Z,2.9
2018-08-24T10:50:00.813Z,3.1
2018-08-24T10:55:01.142Z,3.1
2018-08-24T11:00:00.850Z,3.0
2018-08-24T11:05:00.723Z,2.8
2018-08-24T11:10:00.755Z,3.0
2018-08-24T11:15:00.806Z,3.3
2018-08-24T11:30:00.798Z,4.0
2018-08-24T11:35:00.824Z,4.2
2018-08-24T11:40:00.873Z,4.2
2018-08-24T11:45:00.815Z,4.3
2018-08-24T11:50:00.803Z,4.0
2018-08-24T11:55:01.058Z,4.1
2018-08-24T12:00:00.821Z,4.2
2018-08-24T12:05:00.837Z,4.0
2018-08-24T12:10:00.849Z,3.8
2018-08-24T12:15:00.782Z,4.0
2018-08-24T12:20:00.855Z,3.9
2018-08-24T12:25:00.844Z,3.4
2018-08-24T12:30:00.845Z,2.9
2018-08-24T12:35:00.857Z,2.8
2018-08-24T12:40:00.878Z,2.6
2018-08-24T12:45:00.838Z,2.9
2018-08-24T12:50:00.913Z,2.8
2018-08-24T12:55:00.817Z,3.1
2018-08-24T13:00:01.176Z,3.3
2018-08-24T13:10:00.853Z,3.1
2018-08-24T13:15:00.835Z,3.8
2018-08-24T13:25:00.890Z,3.7
2018-08-24T13:30:00.790Z,3.8
2018-08-24T13:35:00.831Z,4.0
2018-08-24T13:40:00.800Z,3.7
2018-08-24T13:45:00.787Z,3.9
2018-08-24T13:50:00.830Z,3.8
2018-08-24T13:55:00.796Z,4.2
2018-08-24T14:00:01.177Z,4.2
2018-08-24T14:10:00.894Z,4.1
2018-08-24T14:15:00.838Z,4.3
2018-08-24T14:20:00.838Z,4.0
2018-08-24T14:25:00.776Z,4.0
2018-08-24T14:30:00.967Z,4.0
2018-08-24T14:35:00.868Z,4.1
2018-08-24T14:40:00.916Z,4.0
2018-08-24T14:45:00.815Z,3.8
2018-08-24T14:50:00.844Z,3.4
2018-08-24T14:55:00.841Z,3.2
2018-08-24T15:00:00.946Z,3.2
2018-08-24T15:05:00.786Z,3.3
2018-08-24T15:15:00.848Z,3.2
2018-08-24T15:20:01.002Z,3.3
2018-08-24T15:25:00.872Z,3.1
2018-08-24T15:30:01.233Z,3.0
2018-08-24T15:40:00.850Z,3.4
2018-08-24T15:45:00.797Z,3.4
2018-08-24T15:50:00.859Z,3.6
2018-08-24T15:55:00.831Z,3.9
2018-08-24T16:00:01.043Z,3.9
2018-08-24T16:10:00.930Z,3.6
2018-08-24T16:15:00.835Z,3.4
2018-08-24T16:20:01.003Z,3.1
2018-08-24T16:30:00.971Z,2.8
2018-08-24T16:35:00.812Z,3.1
2018-08-24T16:40:00.908Z,3.3
2018-08-24T16:45:00.881Z,3.3
2018-08-24T16:55:00.974Z,3.4
2018-08-24T17:00:00.885Z,3.0
2018-08-24T17:05:00.826Z,2.8
2018-08-24T17:15:00.951Z,2.9
2018-08-24T17:20:00.883Z,3.1
2018-08-24T17:30:00.971Z,3.3
2018-08-24T17:45:00.924Z,3.4
2018-08-24T17:50:00.958Z,3.4
2018-08-24T17:55:00.872Z,3.4
2018-08-24T18:00:00.967Z,3.4
2018-08-24T18:05:00.878Z,3.2
2018-08-24T18:10:01.031Z,3.0
2018-08-24T18:15:01.362Z,3.1
2018-08-24T18:20:00.994Z,2.9
2018-08-24T18:25:00.905Z,2.9
2018-08-24T18:30:01.106Z,3.0
2018-08-24T18:35:01.152Z,3.0
2018-08-24T18:40:01.065Z,2.9
2018-08-24T18:45:00.937Z,3.2
2018-08-24T18:50:00.941Z,3.2
2018-08-24T18:55:00.918Z,3.4
2018-08-24T19:00:00.941Z,3.6
2018-08-24T19:05:00.882Z,3.5
2018-08-24T19:10:00.949Z,3.6
2018-08-24T19:15:00.922Z,3.8
2018-08-24T19:20:01.047Z,4.0
2018-08-24T19:25:00.924Z,4.0
2018-08-24T19:30:00.989Z,4.2
2018-08-24T19:35:00.883Z,3.9
2018-08-24T19:40:00.952Z,3.9
2018-08-24T19:45:00.918Z,3.7
2018-08-24T19:50:00.919Z,3.5
2018-08-24T19:55:01.037Z,3.3
2018-08-24T20:00:00.891Z,3.4
2018-08-24T20:05:00.892Z,3.2
2018-08-24T20:10:00.992Z,3.2
2018-08-24T20:15:00.892Z,3.2
2018-08-24T20:20:00.998Z,3.1
2018-08-24T20:25:00.901Z,3.2
2018-08-24T20:30:00.899Z,3.3
2018-08-24T20:35:00.937Z,3.4
2018-08-24T20:40:01.104Z,3.2
2018-08-24T20:45:00.902Z,3.2
2018-08-24T20:50:01.007Z,3.4
2018-08-24T20:55:01.142Z,3.2
2018-08-24T21:00:01.044Z,3.3
2018-08-24T21:05:00.945Z,3.7
2018-08-24T21:10:00.953Z,4.1
2018-08-24T21:15:01.249Z,4.9
2018-08-24T21:20:00.919Z,6.5
2018-08-24T21:25:00.923Z,7.8
2018-08-24T21:30:01.109Z,9.2
2018-08-24T21:35:00.957Z,10.4
2018-08-24T21:40:01.023Z,10.4
2018-08-24T21:45:00.956Z,9.4
2018-08-24T21:50:00.963Z,7.9
2018-08-24T21:55:00.994Z,6.4
2018-08-24T22:00:01.095Z,5.0
2018-08-24T22:05:00.940Z,4.2
2018-08-24T22:10:00.937Z,3.8
2018-08-24T22:15:00.915Z,3.5
2018-08-24T22:20:01.038Z,3.6
2018-08-24T22:25:00.976Z,3.8
2018-08-24T22:30:01.390Z,3.8
2018-08-24T22:35:00.948Z,3.6
2018-08-24T22:40:01.048Z,4.0
2018-08-24T22:45:00.949Z,4.1
2018-08-24T23:00:00.988Z,4.3
2018-08-24T23:05:00.956Z,4.2
2018-08-24T23:10:01.024Z,4.0
2018-08-24T23:15:00.995Z,4.0
2018-08-24T23:20:01.137Z,3.8
2018-08-24T23:25:01.015Z,3.8
2018-08-24T23:30:01.135Z,4.0
2018-08-24T23:35:00.968Z,3.9
2018-08-24T23:40:00.996Z,3.4
2018-08-24T23:45:01.035Z,3.4
2018-08-24T23:50:01.040Z,3.9
2018-08-24T23:55:00.974Z,3.9
